Time;durP1;ratioP1;P1;durP2;ratioP2;P2;SDS_P1;SDS_P2;PMS_P1;PMS_P2;Temp;Humidity;BMP_temperature;BMP_pressure;BME280_temperature;BME280_humidity;BME280_pressure;Samples;Min_cycle;Max_cycle;Signal;HPM_P1;HPM_P2
2022/06/25 00:01:10;;;;;;;8.95;4.72;;;;;;;;;;4885033;29;20116;-78
2022/06/25 00:03:37;;;;;;;7.53;4.68;;;;;;;;;;4901814;29;20043;-79
2022/06/25 00:06:04;;;;;;;8.25;4.40;;;;;;;;;;4884909;29;20044;-81
2022/06/25 00:08:30;;;;;;;7.40;4.90;;;;;;;;;;4901693;29;20039;-81
2022/06/25 00:10:57;;;;;;;7.50;4.55;;;;;;;;;;4901524;29;20044;-78
2022/06/25 00:13:23;;;;;;;8.50;4.70;;;;;;;;;;4901881;29;20542;-80
2022/06/25 00:15:49;;;;;;;7.63;4.75;;;;;;;;;;4901882;29;20099;-78
2022/06/25 00:18:16;;;;;;;7.20;4.80;;;;;;;;;;4891296;29;20468;-80
2022/06/25 00:20:42;;;;;;;5.57;4.90;;;;;;;;;;4884762;29;20029;-80
2022/06/25 00:23:09;;;;;;;5.78;4.50;;;;;;;;;;4884604;29;20050;-80
2022/06/25 00:25:35;;;;;;;10.27;4.70;;;;;;;;;;4884631;29;20021;-81
2022/06/25 00:28:01;;;;;;;7.80;4.40;;;;;;;;;;4901466;29;20033;-78
2022/06/25 00:30:28;;;;;;;6.00;4.68;;;;;;;;;;4884530;29;20033;-81
2022/06/25 00:32:54;;;;;;;5.30;4.20;;;;;;;;;;4884363;29;20553;-78
2022/06/25 00:35:20;;;;;;;6.82;4.47;;;;;;;;;;4884314;29;20478;-79
2022/06/25 00:37:47;;;;;;;5.57;4.13;;;;;;;;;;4884386;29;20052;-81
2022/06/25 00:40:13;;;;;;;9.80;5.00;;;;;;;;;;4884458;29;20430;-78
2022/06/25 00:42:43;;;;;;;5.85;4.75;;;;;;;;;;4884344;29;20039;-82
2022/06/25 00:45:09;;;;;;;5.47;4.82;;;;;;;;;;4884311;29;20066;-82
2022/06/25 00:47:35;;;;;;;5.53;4.65;;;;;;;;;;4884198;29;20119;-82
2022/06/25 00:50:01;;;;;;;6.25;5.22;;;;;;;;;;4901161;29;20119;-81
2022/06/25 00:52:31;;;;;;;6.80;4.93;;;;;;;;;;4884049;29;20044;-78
2022/06/25 00:54:59;;;;;;;8.50;5.55;;;;;;;;;;4884131;29;20394;-81
2022/06/25 00:57:26;;;;;;;8.27;5.78;;;;;;;;;;4900881;29;20036;-81
2022/06/25 00:59:54;;;;;;;8.02;5.60;;;;;;;;;;4882840;29;20029;-82
2022/06/25 01:02:20;;;;;;;7.20;6.20;;;;;;;;;;4883976;29;20036;-80
2022/06/25 01:04:47;;;;;;;10.95;5.97;;;;;;;;;;4900782;29;20052;-78
2022/06/25 01:07:13;;;;;;;8.65;5.55;;;;;;;;;;4902058;29;20037;-81
2022/06/25 01:09:40;;;;;;;9.00;5.40;;;;;;;;;;4885179;29;20029;-78
2022/06/25 01:12:06;;;;;;;8.52;5.20;;;;;;;;;;4883546;29;20477;-82
2022/06/25 01:14:33;;;;;;;9.27;5.80;;;;;;;;;;4900750;29;20025;-78
2022/06/25 01:16:59;;;;;;;6.65;5.30;;;;;;;;;;4883711;29;20028;-78
2022/06/25 01:19:25;;;;;;;6.93;5.30;;;;;;;;;;4900665;29;20525;-81
2022/06/25 01:21:51;;;;;;;7.32;5.32;;;;;;;;;;4900501;29;20056;-78
2022/06/25 01:24:17;;;;;;;6.60;4.80;;;;;;;;;;4883689;29;20033;-78
2022/06/25 01:26:43;;;;;;;6.60;5.15;;;;;;;;;;4883578;29;20053;-80
2022/06/25 01:29:10;;;;;;;9.55;5.25;;;;;;;;;;4883542;29;20033;-81
2022/06/25 01:31:36;;;;;;;5.60;5.05;;;;;;;;;;4883459;29;20029;-82
2022/06/25 01:34:03;;;;;;;7.40;5.57;;;;;;;;;;4883496;29;20059;-81
2022/06/25 01:36:29;;;;;;;6.75;4.75;;;;;;;;;;4883348;29;20035;-82
2022/06/25 01:38:55;;;;;;;11.20;5.38;;;;;;;;;;4883214;29;20398;-81
2022/06/25 01:41:21;;;;;;;6.55;5.00;;;;;;;;;;4883356;29;20093;-81
2022/06/25 01:43:48;;;;;;;6.60;4.90;;;;;;;;;;4889174;29;20032;-79
2022/06/25 01:46:15;;;;;;;7.18;5.15;;;;;;;;;;4900491;29;20036;-81
2022/06/25 01:48:41;;;;;;;6.78;5.50;;;;;;;;;;4883358;29;20036;-82
2022/06/25 01:51:07;;;;;;;8.70;5.45;;;;;;;;;;4883106;29;20135;-81
2022/06/25 01:53:33;;;;;;;6.93;4.90;;;;;;;;;;4883213;29;20031;-82
2022/06/25 01:55:59;;;;;;;7.80;5.35;;;;;;;;;;4883279;29;20032;-83
2022/06/25 01:58:26;;;;;;;6.35;4.88;;;;;;;;;;4882981;29;20067;-81
2022/06/25 02:00:52;;;;;;;10.43;5.40;;;;;;;;;;4883024;29;20035;-82
2022/06/25 02:03:18;;;;;;;7.78;5.10;;;;;;;;;;4882975;29;20028;-81
2022/06/25 02:05:56;;;;;;;6.40;4.85;;;;;;;;;;4882991;29;20398;-82
2022/06/25 02:08:23;;;;;;;7.38;5.20;;;;;;;;;;4882772;29;20025;-79
2022/06/25 02:10:50;;;;;;;7.90;4.97;;;;;;;;;;4882245;29;20112;-82
2022/06/25 02:13:16;;;;;;;5.90;5.00;;;;;;;;;;4899719;29;20028;-81
2022/06/25 02:15:43;;;;;;;9.45;4.93;;;;;;;;;;4882609;29;20033;-78
2022/06/25 02:18:10;;;;;;;6.40;5.28;;;;;;;;;;4899670;29;20502;-79
2022/06/25 02:20:36;;;;;;;6.88;5.03;;;;;;;;;;4885030;29;20021;-82
2022/06/25 02:23:03;;;;;;;7.40;4.63;;;;;;;;;;4882995;29;20065;-83
2022/06/25 02:25:29;;;;;;;5.75;4.85;;;;;;;;;;4899392;29;20039;-78
2022/06/25 02:27:59;;;;;;;5.80;4.60;;;;;;;;;;4882450;29;20032;-78
2022/06/25 02:30:25;;;;;;;6.82;5.13;;;;;;;;;;4882400;29;20032;-78
2022/06/25 02:32:51;;;;;;;7.40;4.65;;;;;;;;;;4899338;29;20482;-78
2022/06/25 02:35:17;;;;;;;6.80;4.97;;;;;;;;;;4882530;29;20398;-83
2022/06/25 02:37:43;;;;;;;7.43;4.93;;;;;;;;;;4882435;29;20032;-78
2022/06/25 02:40:12;;;;;;;7.93;4.70;;;;;;;;;;4882481;29;20374;-82
2022/06/25 02:42:39;;;;;;;8.65;5.22;;;;;;;;;;4882209;29;20494;-78
2022/06/25 02:45:05;;;;;;;7.25;4.82;;;;;;;;;;4882362;29;20032;-82
2022/06/25 02:47:32;;;;;;;6.00;4.60;;;;;;;;;;4882317;29;20029;-83
2022/06/25 02:49:58;;;;;;;6.75;4.82;;;;;;;;;;4899074;29;20024;-78
2022/06/25 02:52:25;;;;;;;11.38;5.15;;;;;;;;;;4882145;29;20127;-84
2022/06/25 02:54:51;;;;;;;8.68;4.30;;;;;;;;;;4899362;29;20389;-82
2022/06/25 03:00:01;;;;;;;6.18;4.72;;;;;;;;;;4900851;29;20173;-82
2022/06/25 03:02:28;;;;;;;6.05;4.80;;;;;;;;;;4881982;29;20039;-78
2022/06/25 03:04:54;;;;;;;5.38;4.47;;;;;;;;;;4898849;29;20031;-82
2022/06/25 03:07:20;;;;;;;6.72;4.50;;;;;;;;;;4898656;29;20033;-81
2022/06/25 03:09:46;;;;;;;6.05;5.07;;;;;;;;;;4881867;29;20398;-80
2022/06/25 03:12:13;;;;;;;7.53;5.30;;;;;;;;;;4881696;29;20044;-78
2022/06/25 03:14:39;;;;;;;7.03;4.95;;;;;;;;;;4898541;29;20103;-78
2022/06/25 03:17:05;;;;;;;7.53;5.05;;;;;;;;;;4881814;29;20033;-78
2022/06/25 03:19:32;;;;;;;5.72;5.13;;;;;;;;;;4881875;29;20025;-80
2022/06/25 03:21:58;;;;;;;7.13;4.80;;;;;;;;;;4881648;29;20064;-81
2022/06/25 03:24:24;;;;;;;8.05;4.85;;;;;;;;;;4881035;29;20024;-78
2022/06/25 03:26:51;;;;;;;5.95;4.63;;;;;;;;;;4898551;29;20039;-77
2022/06/25 03:29:17;;;;;;;7.80;4.75;;;;;;;;;;4881665;29;20450;-82
2022/06/25 03:31:43;;;;;;;9.10;4.75;;;;;;;;;;4899485;29;20028;-78
2022/06/25 03:34:10;;;;;;;7.32;4.30;;;;;;;;;;4899063;29;20052;-84
2022/06/25 03:36:36;;;;;;;6.07;4.60;;;;;;;;;;4881666;29;20398;-81
2022/06/25 03:39:02;;;;;;;6.35;4.00;;;;;;;;;;4881691;29;20394;-78
2022/06/25 03:41:37;;;;;;;9.13;4.53;;;;;;;;;;4881611;29;20510;-78
2022/06/25 03:44:08;;;;;;;5.32;3.90;;;;;;;;;;4881540;29;20064;-81
2022/06/25 03:46:35;;;;;;;9.52;4.25;;;;;;;;;;4881504;29;20029;-79
2022/06/25 03:49:01;;;;;;;6.22;4.55;;;;;;;;;;4898276;29;20043;-78
2022/06/25 03:51:28;;;;;;;7.10;4.35;;;;;;;;;;4881331;29;20494;-78
2022/06/25 03:53:55;;;;;;;3.47;2.40;;;;;;;;;;4881475;29;20033;-83
2022/06/25 03:56:21;;;;;;;2.50;1.60;;;;;;;;;;4898102;29;20033;-78
2022/06/25 03:58:48;;;;;;;3.55;1.15;;;;;;;;;;4881411;29;20031;-77
2022/06/25 04:01:19;;;;;;;4.82;1.67;;;;;;;;;;4903466;29;20076;-78
2022/06/25 04:03:45;;;;;;;3.10;1.02;;;;;;;;;;4893930;29;20052;-77
2022/06/25 04:06:12;;;;;;;2.67;1.10;;;;;;;;;;4884742;29;20036;-77
2022/06/25 04:08:38;;;;;;;3.33;1.25;;;;;;;;;;4881410;29;20505;-78
2022/06/25 04:11:04;;;;;;;4.22;1.40;;;;;;;;;;4882397;29;20052;-81
2022/06/25 04:13:30;;;;;;;2.13;1.00;;;;;;;;;;4890343;29;20036;-77
2022/06/25 04:15:56;;;;;;;2.97;1.25;;;;;;;;;;4885968;29;20036;-77
2022/06/25 04:18:22;;;;;;;2.97;1.42;;;;;;;;;;4881958;29;20029;-82
2022/06/25 04:20:48;;;;;;;4.90;1.00;;;;;;;;;;4881320;29;20081;-82
2022/06/25 04:23:15;;;;;;;4.93;1.42;;;;;;;;;;4898104;29;20118;-84
2022/06/25 04:25:41;;;;;;;3.35;1.20;;;;;;;;;;4881137;29;20120;-76
2022/06/25 04:30:52;;;;;;;3.40;1.30;;;;;;;;;;4899121;29;20068;-77
2022/06/25 04:33:21;;;;;;;2.50;1.00;;;;;;;;;;4899755;29;20029;-79
2022/06/25 04:35:47;;;;;;;2.75;0.70;;;;;;;;;;4885848;29;20025;-84
2022/06/25 04:38:13;;;;;;;1.67;0.80;;;;;;;;;;4884674;29;20032;-84
2022/06/25 04:40:39;;;;;;;2.78;0.77;;;;;;;;;;4884085;29;20024;-82
2022/06/25 04:43:05;;;;;;;1.77;0.60;;;;;;;;;;4884398;29;20111;-84
2022/06/25 04:45:32;;;;;;;0.98;0.30;;;;;;;;;;4884407;29;20028;-78
2022/06/25 04:48:02;;;;;;;0.60;0.30;;;;;;;;;;4884557;29;20032;-83
2022/06/25 04:50:28;;;;;;;0.65;0.15;;;;;;;;;;4901805;29;20029;-78
2022/06/25 04:52:55;;;;;;;2.10;0.20;;;;;;;;;;4891887;29;20131;-81
2022/06/25 04:55:21;;;;;;;0.60;0.10;;;;;;;;;;4884277;29;20024;-79
2022/06/25 04:57:47;;;;;;;0.52;0.10;;;;;;;;;;4884460;29;20032;-82
2022/06/25 05:00:14;;;;;;;3.38;0.20;;;;;;;;;;4884347;29;20548;-82
2022/06/25 05:02:41;;;;;;;2.55;0.30;;;;;;;;;;4884111;29;20065;-84
2022/06/25 05:05:07;;;;;;;2.10;0.35;;;;;;;;;;4884241;29;20375;-78
2022/06/25 05:07:33;;;;;;;4.05;0.60;;;;;;;;;;4900914;29;20028;-82
2022/06/25 05:09:59;;;;;;;3.25;0.60;;;;;;;;;;4884073;29;20115;-78
2022/06/25 05:15:10;;;;;;;3.20;0.52;;;;;;;;;;4900862;29;20457;-82
2022/06/25 05:17:36;;;;;;;5.15;0.75;;;;;;;;;;4883800;29;20028;-83
2022/06/25 05:20:03;;;;;;;9.43;0.50;;;;;;;;;;4883685;29;20062;-82
2022/06/25 05:22:29;;;;;;;4.47;0.43;;;;;;;;;;4883810;29;20033;-78
2022/06/25 05:24:55;;;;;;;3.72;0.50;;;;;;;;;;4884167;29;20059;-78
2022/06/25 05:27:23;;;;;;;2.88;0.40;;;;;;;;;;4883337;29;20032;-77
2022/06/25 05:29:49;;;;;;;3.50;0.32;;;;;;;;;;4900688;29;20020;-81
2022/06/25 05:32:15;;;;;;;2.03;0.35;;;;;;;;;;4883402;29;20064;-81
2022/06/25 05:34:41;;;;;;;1.48;0.35;;;;;;;;;;4890131;29;20045;-77
2022/06/25 05:37:07;;;;;;;2.58;0.30;;;;;;;;;;4882440;29;20060;-77
2022/06/25 05:39:33;;;;;;;1.08;0.10;;;;;;;;;;4883161;29;20103;-79
2022/06/25 05:41:59;;;;;;;0.77;0.10;;;;;;;;;;4899708;29;20124;-77
2022/06/25 05:44:25;;;;;;;1.92;0.30;;;;;;;;;;4883298;29;20024;-81
2022/06/25 05:46:52;;;;;;;1.30;0.25;;;;;;;;;;4876784;29;20146;-81
2022/06/25 05:49:18;;;;;;;1.65;0.20;;;;;;;;;;4872985;29;20029;-77
2022/06/25 05:51:44;;;;;;;2.67;0.20;;;;;;;;;;4874325;29;20545;-77
2022/06/25 05:54:10;;;;;;;0.75;0.20;;;;;;;;;;4889613;29;20025;-77
2022/06/25 05:56:36;;;;;;;1.17;0.25;;;;;;;;;;4873152;29;20441;-79
2022/06/25 05:59:02;;;;;;;1.45;0.60;;;;;;;;;;4869320;29;20056;-80
2022/06/25 06:01:28;;;;;;;1.48;0.50;;;;;;;;;;4864596;29;20029;-78
2022/06/25 06:03:54;;;;;;;1.13;0.28;;;;;;;;;;4881175;29;20394;-81
2022/06/25 06:06:20;;;;;;;1.17;0.20;;;;;;;;;;4880935;29;20063;-84
2022/06/25 06:08:47;;;;;;;1.75;0.40;;;;;;;;;;4864503;29;20029;-85
2022/06/25 06:11:13;;;;;;;2.97;0.30;;;;;;;;;;4866400;29;20049;-84
2022/06/25 06:13:39;;;;;;;0.80;0.30;;;;;;;;;;4864638;29;20037;-86
2022/06/25 06:16:05;;;;;;;1.88;0.50;;;;;;;;;;4864288;29;20033;-83
2022/06/25 06:18:31;;;;;;;1.23;0.20;;;;;;;;;;4864310;29;20515;-77
2022/06/25 06:20:58;;;;;;;1.30;0.30;;;;;;;;;;4864367;29;20029;-82
2022/06/25 06:23:24;;;;;;;1.13;0.40;;;;;;;;;;4881404;29;20033;-84
2022/06/25 06:25:50;;;;;;;1.10;0.20;;;;;;;;;;4866056;29;20037;-83
2022/06/25 06:28:16;;;;;;;2.30;1.10;;;;;;;;;;4865409;29;20061;-80
2022/06/25 06:30:42;;;;;;;1.27;0.50;;;;;;;;;;4866583;29;20049;-83
2022/06/25 06:33:09;;;;;;;0.60;0.15;;;;;;;;;;4863952;29;20073;-85
2022/06/25 06:35:35;;;;;;;0.57;0.17;;;;;;;;;;4863853;29;20040;-81
2022/06/25 06:38:01;;;;;;;0.40;0.10;;;;;;;;;;4864017;29;20064;-82
2022/06/25 06:40:28;;;;;;;1.73;0.15;;;;;;;;;;4863868;29;20041;-79
2022/06/25 06:42:55;;;;;;;2.25;0.57;;;;;;;;;;4863863;29;20056;-81
2022/06/25 06:45:22;;;;;;;0.75;0.13;;;;;;;;;;4863680;29;20036;-83
2022/06/25 06:47:48;;;;;;;3.10;1.17;;;;;;;;;;4863798;29;20033;-75
2022/06/25 06:50:14;;;;;;;1.67;0.50;;;;;;;;;;4864747;29;20025;-79
2022/06/25 06:52:41;;;;;;;1.10;0.40;;;;;;;;;;4863684;29;20169;-79
2022/06/25 06:55:07;;;;;;;1.27;0.20;;;;;;;;;;4880202;29;20387;-79
2022/06/25 06:57:34;;;;;;;1.65;0.40;;;;;;;;;;4862892;29;20029;-78
2022/06/25 07:00:01;;;;;;;0.57;0.20;;;;;;;;;;4863097;29;20040;-74
2022/06/25 07:02:27;;;;;;;0.50;0.08;;;;;;;;;;4863284;29;20059;-79
2022/06/25 07:04:54;;;;;;;1.02;0.30;;;;;;;;;;4863351;29;20029;-80
2022/06/25 07:07:20;;;;;;;1.55;0.22;;;;;;;;;;4879172;29;20208;-75
2022/06/25 07:09:46;;;;;;;1.10;0.30;;;;;;;;;;4874751;29;20427;-75
2022/06/25 07:12:12;;;;;;;0.95;0.30;;;;;;;;;;4881532;29;20056;-78
2022/06/25 07:14:38;;;;;;;0.43;0.10;;;;;;;;;;4881652;29;20449;-79
2022/06/25 07:17:04;;;;;;;0.30;0.10;;;;;;;;;;4898642;29;20033;-79
2022/06/25 07:19:30;;;;;;;0.47;0.10;;;;;;;;;;4881668;29;20435;-81
2022/06/25 07:21:57;;;;;;;1.63;0.10;;;;;;;;;;4881788;29;20029;-76
2022/06/25 07:24:23;;;;;;;0.40;0.20;;;;;;;;;;4882169;29;20084;-79
2022/06/25 07:26:50;;;;;;;0.50;0.10;;;;;;;;;;4881843;29;20438;-84
2022/06/25 07:29:16;;;;;;;0.25;0.10;;;;;;;;;;4899469;29;20025;-81
2022/06/25 07:31:42;;;;;;;0.80;0.20;;;;;;;;;;4881499;29;20048;-81
2022/06/25 07:34:09;;;;;;;1.00;0.10;;;;;;;;;;4881519;29;20040;-80
2022/06/25 07:36:35;;;;;;;0.10;0.10;;;;;;;;;;4881544;29;20494;-80
2022/06/25 07:39:02;;;;;;;0.80;0.10;;;;;;;;;;4881644;29;20367;-77
2022/06/25 07:41:28;;;;;;;0.82;0.10;;;;;;;;;;4881488;29;20036;-78
2022/06/25 07:43:55;;;;;;;0.20;0.10;;;;;;;;;;4898377;29;20032;-77
2022/06/25 07:46:21;;;;;;;0.82;0.20;;;;;;;;;;4881475;29;20066;-84
2022/06/25 07:48:47;;;;;;;0.85;0.20;;;;;;;;;;4881484;29;20037;-79
2022/06/25 07:53:58;;;;;;;1.95;0.10;;;;;;;;;;4898482;29;20032;-75
2022/06/25 07:56:25;;;;;;;0.40;0.10;;;;;;;;;;4881053;29;20028;-78
2022/06/25 07:58:51;;;;;;;1.55;0.17;;;;;;;;;;4897660;29;20059;-78
2022/06/25 08:01:17;;;;;;;0.50;0.10;;;;;;;;;;4881396;29;20029;-79
2022/06/25 08:03:43;;;;;;;0.57;0.10;;;;;;;;;;4882339;29;20092;-76
2022/06/25 08:06:10;;;;;;;0.52;0.00;;;;;;;;;;4881418;29;20471;-76
2022/06/25 08:08:36;;;;;;;0.08;0.00;;;;;;;;;;4881351;29;20487;-77
2022/06/25 08:11:03;;;;;;;0.20;0.10;;;;;;;;;;4884194;29;20459;-76
2022/06/25 08:13:29;;;;;;;0.95;0.10;;;;;;;;;;4885309;29;20028;-84
2022/06/25 08:15:55;;;;;;;0.10;0.03;;;;;;;;;;4903856;29;20037;-74
2022/06/25 08:18:22;;;;;;;0.85;0.20;;;;;;;;;;4884941;29;20550;-81
2022/06/25 08:20:49;;;;;;;0.63;0.20;;;;;;;;;;4901649;29;20029;-83
2022/06/25 08:23:16;;;;;;;1.20;0.10;;;;;;;;;;4884843;29;20020;-84
2022/06/25 08:25:42;;;;;;;2.22;0.20;;;;;;;;;;4884735;29;20036;-76
2022/06/25 08:28:09;;;;;;;0.52;0.10;;;;;;;;;;4901492;29;20024;-81
2022/06/25 08:30:35;;;;;;;0.43;0.10;;;;;;;;;;4884552;29;20458;-76
2022/06/25 08:33:01;;;;;;;0.85;0.20;;;;;;;;;;4884365;29;20486;-75
2022/06/25 08:35:27;;;;;;;1.75;0.20;;;;;;;;;;4901093;29;20029;-79
2022/06/25 08:37:54;;;;;;;0.68;0.13;;;;;;;;;;4901173;29;20036;-79
2022/06/25 08:40:20;;;;;;;1.02;0.30;;;;;;;;;;4884380;29;20443;-79
2022/06/25 08:42:48;;;;;;;1.77;0.20;;;;;;;;;;4901168;29;20081;-79
2022/06/25 08:45:15;;;;;;;0.30;0.10;;;;;;;;;;4901272;29;20056;-76
2022/06/25 08:47:51;;;;;;;0.85;0.20;;;;;;;;;;4884639;29;20033;-75
2022/06/25 08:50:18;;;;;;;1.42;0.10;;;;;;;;;;4884242;29;20025;-74
2022/06/25 08:52:46;;;;;;;0.20;0.10;;;;;;;;;;4884423;29;20037;-81
2022/06/25 08:55:33;;;;;;;1.42;0.10;;;;;;;;;;4901076;29;20056;-83
2022/06/25 08:58:00;;;;;;;0.98;0.10;;;;;;;;;;4884339;29;20494;-82
2022/06/25 09:00:27;;;;;;;1.10;0.20;;;;;;;;;;4884226;29;20025;-76
2022/06/25 09:02:53;;;;;;;0.82;0.20;;;;;;;;;;4901205;29;20367;-78
2022/06/25 09:05:30;;;;;;;1.02;0.10;;;;;;;;;;4884063;29;20028;-78
2022/06/25 09:07:57;;;;;;;0.50;0.15;;;;;;;;;;4884293;29;20033;-84
2022/06/25 09:10:24;;;;;;;0.75;0.10;;;;;;;;;;4885345;29;20036;-87
2022/06/25 09:12:51;;;;;;;4.28;0.30;;;;;;;;;;4900544;29;20072;-75
2022/06/25 09:15:19;;;;;;;0.82;0.20;;;;;;;;;;4883368;29;20028;-79
2022/06/25 09:17:52;;;;;;;0.75;0.20;;;;;;;;;;4883242;29;20028;-79
2022/06/25 09:20:19;;;;;;;1.30;0.22;;;;;;;;;;4883253;29;20028;-75
2022/06/25 09:23:05;;;;;;;0.85;0.20;;;;;;;;;;4899906;29;20032;-77
2022/06/25 09:25:33;;;;;;;1.15;0.28;;;;;;;;;;4900427;29;20025;-75
2022/06/25 09:27:59;;;;;;;0.40;0.10;;;;;;;;;;4883462;29;20021;-74
2022/06/25 09:30:28;;;;;;;1.08;0.13;;;;;;;;;;4883475;29;20037;-75
2022/06/25 09:32:58;;;;;;;0.90;0.20;;;;;;;;;;4883009;29;20084;-74
2022/06/25 09:35:32;;;;;;;0.68;0.20;;;;;;;;;;4883146;29;20128;-75
2022/06/25 09:38:19;;;;;;;0.68;0.20;;;;;;;;;;4883350;29;20123;-75
2022/06/25 09:40:50;;;;;;;1.38;0.20;;;;;;;;;;4883310;29;20032;-76
2022/06/25 09:43:20;;;;;;;0.85;0.20;;;;;;;;;;4883350;29;20076;-76
2022/06/25 09:45:48;;;;;;;0.60;0.20;;;;;;;;;;4883179;29;20025;-78
2022/06/25 09:48:21;;;;;;;0.32;0.10;;;;;;;;;;4883182;29;20558;-76
2022/06/25 09:51:06;;;;;;;0.73;0.20;;;;;;;;;;4885300;29;20036;-78
2022/06/25 09:53:33;;;;;;;0.68;0.20;;;;;;;;;;4897494;29;20396;-86
2022/06/25 09:56:00;;;;;;;0.57;0.15;;;;;;;;;;4901956;29;20478;-85
2022/06/25 09:58:26;;;;;;;0.35;0.17;;;;;;;;;;4902067;29;20054;-85
2022/06/25 10:00:53;;;;;;;1.02;0.28;;;;;;;;;;4918840;29;20035;-79
2022/06/25 10:03:20;;;;;;;1.13;0.20;;;;;;;;;;4901528;29;20081;-78
2022/06/25 10:05:47;;;;;;;1.05;0.50;;;;;;;;;;4901307;29;20087;-78
2022/06/25 10:08:15;;;;;;;0.93;0.22;;;;;;;;;;4901246;29;20036;-77
2022/06/25 10:10:43;;;;;;;0.50;0.20;;;;;;;;;;4900573;29;20024;-77
2022/06/25 10:13:10;;;;;;;1.58;0.20;;;;;;;;;;4901100;29;20068;-75
2022/06/25 10:15:37;;;;;;;0.22;0.13;;;;;;;;;;4901211;29;20028;-77
2022/06/25 10:18:04;;;;;;;0.75;0.20;;;;;;;;;;4919035;29;20020;-90
2022/06/25 10:20:37;;;;;;;0.30;0.10;;;;;;;;;;4918668;29;20115;-78
2022/06/25 10:23:04;;;;;;;1.35;0.10;;;;;;;;;;4901713;29;20093;-94
2022/06/25 10:25:30;;;;;;;0.52;0.15;;;;;;;;;;4918845;29;20119;-78
2022/06/25 10:28:08;;;;;;;0.75;0.10;;;;;;;;;;4901452;29;20029;-81
2022/06/25 10:30:45;;;;;;;1.63;0.20;;;;;;;;;;4901685;29;20612;-89
2022/06/25 10:33:11;;;;;;;0.40;0.20;;;;;;;;;;4901212;29;20055;-88
2022/06/25 10:35:39;;;;;;;0.50;0.20;;;;;;;;;;4904313;29;20013;-77
2022/06/25 10:38:07;;;;;;;0.28;0.20;;;;;;;;;;4917530;29;20072;-77
2022/06/25 10:40:34;;;;;;;1.00;0.30;;;;;;;;;;4919548;29;20028;-80
2022/06/25 10:43:04;;;;;;;0.47;0.20;;;;;;;;;;4901006;29;20493;-88
2022/06/25 10:45:34;;;;;;;0.50;0.30;;;;;;;;;;4901281;29;20084;-80
2022/06/25 10:48:02;;;;;;;0.43;0.20;;;;;;;;;;4918229;29;20024;-79
2022/06/25 10:50:32;;;;;;;1.40;0.35;;;;;;;;;;4901223;29;20106;-81
2022/06/25 10:53:07;;;;;;;0.98;0.20;;;;;;;;;;4901408;29;20048;-86
2022/06/25 10:55:33;;;;;;;1.80;0.38;;;;;;;;;;4900785;29;20534;-77
2022/06/25 10:58:11;;;;;;;1.10;0.20;;;;;;;;;;4901463;29;20024;-80
2022/06/25 11:00:48;;;;;;;0.40;0.20;;;;;;;;;;4900716;29;20035;-87
2022/06/25 11:03:14;;;;;;;0.95;0.38;;;;;;;;;;4902055;29;20036;-82
2022/06/25 11:05:41;;;;;;;1.33;0.25;;;;;;;;;;4901046;29;20123;-80
2022/06/25 11:08:07;;;;;;;1.13;0.22;;;;;;;;;;4917921;29;20099;-83
2022/06/25 11:10:37;;;;;;;0.95;0.30;;;;;;;;;;4900720;29;20127;-75
2022/06/25 11:13:04;;;;;;;0.65;0.30;;;;;;;;;;4901895;29;20048;-77
2022/06/25 11:15:41;;;;;;;1.38;0.30;;;;;;;;;;4906059;29;20046;-77
2022/06/25 11:18:11;;;;;;;1.13;0.40;;;;;;;;;;4900619;29;20048;-76
2022/06/25 11:20:37;;;;;;;0.80;0.40;;;;;;;;;;4887425;29;20044;-79
2022/06/25 11:23:03;;;;;;;1.52;0.40;;;;;;;;;;4871265;29;20085;-77
2022/06/25 11:28:47;;;;;;;0.82;0.32;;;;;;;;;;4898429;29;20065;-91
2022/06/25 11:31:14;;;;;;;3.03;0.93;;;;;;;;;;4882156;29;20040;-78
2022/06/25 11:33:41;;;;;;;2.25;0.47;;;;;;;;;;4878837;29;20037;-88
2022/06/25 11:36:10;;;;;;;2.03;0.60;;;;;;;;;;4868600;29;20056;-90
2022/06/25 11:38:40;;;;;;;0.75;0.40;;;;;;;;;;4871152;29;20039;-94
2022/06/25 11:41:06;;;;;;;0.70;0.40;;;;;;;;;;4863405;29;20061;-79
2022/06/25 11:43:36;;;;;;;1.13;0.50;;;;;;;;;;4863752;29;20578;-91
2022/06/25 11:46:02;;;;;;;2.13;0.52;;;;;;;;;;4866767;29;20033;-79
2022/06/25 11:48:30;;;;;;;0.70;0.32;;;;;;;;;;4884180;29;20028;-90
2022/06/25 11:50:56;;;;;;;0.80;0.40;;;;;;;;;;4869248;29;20561;-80
2022/06/25 11:53:22;;;;;;;1.75;0.60;;;;;;;;;;4876574;29;20029;-78
2022/06/25 11:55:59;;;;;;;2.15;0.50;;;;;;;;;;4867456;29;20085;-76
2022/06/25 11:58:26;;;;;;;1.02;0.60;;;;;;;;;;4866776;29;20033;-79
2022/06/25 12:01:05;;;;;;;1.05;0.45;;;;;;;;;;4885745;29;20040;-78
2022/06/25 12:03:32;;;;;;;2.20;0.60;;;;;;;;;;4873527;29;20068;-81
2022/06/25 12:06:00;;;;;;;2.03;0.60;;;;;;;;;;4885332;29;20325;-92
2022/06/25 12:08:26;;;;;;;1.45;0.55;;;;;;;;;;4885436;29;20509;-77
2022/06/25 12:10:56;;;;;;;1.30;0.52;;;;;;;;;;4902378;29;20111;-87
2022/06/25 12:13:23;;;;;;;1.67;0.82;;;;;;;;;;4885420;29;20036;-76
2022/06/25 12:15:57;;;;;;;1.33;0.73;;;;;;;;;;4885065;29;20092;-78
2022/06/25 12:18:40;;;;;;;2.20;0.60;;;;;;;;;;4886075;29;20039;-75
2022/06/25 12:21:07;;;;;;;1.75;0.75;;;;;;;;;;4886939;29;20413;-78
2022/06/25 12:23:52;;;;;;;1.30;0.50;;;;;;;;;;4885344;29;20032;-89
2022/06/25 12:26:25;;;;;;;2.75;0.70;;;;;;;;;;4885378;29;20033;-83
2022/06/25 12:28:51;;;;;;;1.63;0.60;;;;;;;;;;4884924;29;20085;-87
2022/06/25 12:31:17;;;;;;;1.30;0.60;;;;;;;;;;4884823;29;20137;-84
2022/06/25 12:33:50;;;;;;;1.95;0.70;;;;;;;;;;4884928;29;20036;-81
2022/06/25 12:36:17;;;;;;;1.17;0.50;;;;;;;;;;4889580;29;20025;-93
2022/06/25 12:38:44;;;;;;;2.63;0.70;;;;;;;;;;4889534;29;20052;-84
2022/06/25 12:41:10;;;;;;;3.08;0.85;;;;;;;;;;4900285;29;20029;-81
2022/06/25 12:43:44;;;;;;;0.73;0.50;;;;;;;;;;4900263;29;20401;-77
2022/06/25 12:46:11;;;;;;;1.00;0.70;;;;;;;;;;4900317;29;20525;-82
2022/06/25 12:48:37;;;;;;;0.85;0.52;;;;;;;;;;4900509;29;20029;-77
2022/06/25 12:51:08;;;;;;;1.20;0.63;;;;;;;;;;4900622;29;20025;-88
2022/06/25 12:53:35;;;;;;;0.80;0.60;;;;;;;;;;4901274;29;20041;-77
2022/06/25 12:56:02;;;;;;;1.95;0.73;;;;;;;;;;4900860;29;20029;-76
2022/06/25 12:58:38;;;;;;;1.20;0.80;;;;;;;;;;4900982;29;20033;-76
2022/06/25 13:01:23;;;;;;;1.17;0.60;;;;;;;;;;4899808;29;20390;-78
2022/06/25 13:03:49;;;;;;;0.98;0.55;;;;;;;;;;4899753;29;20474;-84
2022/06/25 13:06:15;;;;;;;0.98;0.60;;;;;;;;;;4901264;29;20075;-89
2022/06/25 13:08:42;;;;;;;1.67;0.75;;;;;;;;;;4899142;29;20029;-89
2022/06/25 13:11:18;;;;;;;1.10;0.70;;;;;;;;;;4903827;29;20520;-76
2022/06/25 13:13:44;;;;;;;1.50;0.73;;;;;;;;;;4900314;29;20134;-76
2022/06/25 13:16:11;;;;;;;0.95;0.60;;;;;;;;;;4901127;29;20032;-77
2022/06/25 13:18:37;;;;;;;1.30;0.70;;;;;;;;;;4899728;29;20375;-78
2022/06/25 13:21:04;;;;;;;1.23;0.50;;;;;;;;;;4900875;29;20482;-81
2022/06/25 13:23:30;;;;;;;2.00;0.68;;;;;;;;;;4899345;29;20496;-78
2022/06/25 13:25:56;;;;;;;2.13;0.80;;;;;;;;;;4900358;29;20474;-76
2022/06/25 13:28:22;;;;;;;1.63;0.70;;;;;;;;;;4900732;29;20542;-76
2022/06/25 13:30:48;;;;;;;0.90;0.50;;;;;;;;;;4899160;29;20430;-76
2022/06/25 13:33:15;;;;;;;2.17;0.60;;;;;;;;;;4899812;29;20107;-89
2022/06/25 13:35:41;;;;;;;2.13;0.75;;;;;;;;;;4899400;29;20056;-77
2022/06/25 13:38:07;;;;;;;1.92;0.73;;;;;;;;;;4899388;29;20032;-77
2022/06/25 13:40:33;;;;;;;4.45;0.70;;;;;;;;;;4899269;29;20024;-79
2022/06/25 13:42:59;;;;;;;1.13;0.70;;;;;;;;;;4900551;29;20032;-80
2022/06/25 13:45:26;;;;;;;1.38;0.85;;;;;;;;;;4899070;29;20028;-76
2022/06/25 13:47:52;;;;;;;1.17;0.60;;;;;;;;;;4902116;29;20557;-77
2022/06/25 13:50:18;;;;;;;2.33;0.70;;;;;;;;;;4898837;29;20040;-77
2022/06/25 13:52:44;;;;;;;1.33;0.65;;;;;;;;;;4899167;29;20405;-77
2022/06/25 13:55:13;;;;;;;2.45;0.80;;;;;;;;;;4898707;29;20025;-77
2022/06/25 13:57:39;;;;;;;1.40;0.70;;;;;;;;;;4899038;29;20032;-76
2022/06/25 14:00:06;;;;;;;2.78;0.80;;;;;;;;;;4898615;29;20040;-77
2022/06/25 14:02:32;;;;;;;1.50;0.60;;;;;;;;;;4898597;29;20406;-79
2022/06/25 14:04:58;;;;;;;1.45;0.65;;;;;;;;;;4898704;29;20021;-77
2022/06/25 14:07:25;;;;;;;1.83;0.70;;;;;;;;;;4899220;29;20037;-77
2022/06/25 14:09:51;;;;;;;1.15;0.70;;;;;;;;;;4898536;29;20033;-77
2022/06/25 14:12:17;;;;;;;1.02;0.65;;;;;;;;;;4912355;29;20138;-77
2022/06/25 14:14:43;;;;;;;2.63;0.80;;;;;;;;;;4918423;29;20028;-78
2022/06/25 14:17:10;;;;;;;3.53;0.90;;;;;;;;;;4901452;29;20055;-76
2022/06/25 14:19:36;;;;;;;1.30;0.60;;;;;;;;;;4918536;29;20426;-77
2022/06/25 14:22:05;;;;;;;1.08;0.77;;;;;;;;;;4901532;29;20032;-89
2022/06/25 14:27:16;;;;;;;1.05;0.70;;;;;;;;;;4918317;29;20034;-77
2022/06/25 14:29:42;;;;;;;1.17;0.77;;;;;;;;;;4918462;29;20028;-76
2022/06/25 14:32:08;;;;;;;1.73;0.90;;;;;;;;;;4918218;29;20040;-78
2022/06/25 14:34:34;;;;;;;1.08;0.70;;;;;;;;;;4918239;29;20028;-78
2022/06/25 14:42:30;;;;;;;1.83;0.70;;;;;;;;;;4918170;29;20118;-90
2022/06/25 14:44:56;;;;;;;8.95;2.28;;;;;;;;;;4901208;29;20031;-89
2022/06/25 14:47:22;;;;;;;5.15;1.42;;;;;;;;;;4918261;29;20034;-90
2022/06/25 14:49:49;;;;;;;19.98;3.92;;;;;;;;;;4901156;29;20466;-77
2022/06/25 14:52:16;;;;;;;3.92;1.08;;;;;;;;;;4918034;29;20024;-77
2022/06/25 14:54:42;;;;;;;0.90;0.50;;;;;;;;;;4901512;29;20370;-80
2022/06/25 14:57:09;;;;;;;1.67;0.77;;;;;;;;;;4900956;29;20031;-76
2022/06/25 14:59:35;;;;;;;1.63;0.70;;;;;;;;;;4918086;29;20025;-77
2022/06/25 15:02:08;;;;;;;2.13;0.57;;;;;;;;;;4918382;29;20111;-89
2022/06/25 15:04:34;;;;;;;3.15;0.90;;;;;;;;;;4900668;29;20082;-77
2022/06/25 15:07:00;;;;;;;2.28;0.70;;;;;;;;;;4900698;29;20028;-77